sensor_id;sensor_type;location;lat;lon;timestamp;temperature;humidity
11577;DHT22;5844;51.496;6.788;2022-10-15T00:00:34;13.90;99.90
11577;DHT22;5844;51.496;6.788;2022-10-15T00:03:00;13.90;99.90
11577;DHT22;5844;51.496;6.788;2022-10-15T00:05:26;13.80;99.90
11577;DHT22;5844;51.496;6.788;2022-10-15T00:07:52;13.80;99.90
11577;DHT22;5844;51.496;6.788;2022-10-15T00:10:18;13.80;99.90
11577;DHT22;5844;51.496;6.788;2022-10-15T00:12:44;13.70;99.90
11577;DHT22;5844;51.496;6.788;2022-10-15T00:15:10;13.70;99.90
11577;DHT22;5844;51.496;6.788;2022-10-15T00:17:37;13.70;99.90
11577;DHT22;5844;51.496;6.788;2022-10-15T00:20:04;13.60;99.90
11577;DHT22;5844;51.496;6.788;2022-10-15T00:22:30;13.60;99.90
11577;DHT22;5844;51.496;6.788;2022-10-15T00:24:56;13.60;99.90
11577;DHT22;5844;51.496;6.788;2022-10-15T00:27:22;13.50;99.90
11577;DHT22;5844;51.496;6.788;2022-10-15T00:29:47;13.50;99.90
11577;DHT22;5844;51.496;6.788;2022-10-15T00:32:13;13.40;99.90
11577;DHT22;5844;51.496;6.788;2022-10-15T00:34:39;13.40;99.90
11577;DHT22;5844;51.496;6.788;2022-10-15T00:37:05;13.40;99.90
11577;DHT22;5844;51.496;6.788;2022-10-15T00:39:31;13.40;99.90
11577;DHT22;5844;51.496;6.788;2022-10-15T00:41:57;13.40;99.90
11577;DHT22;5844;51.496;6.788;2022-10-15T00:49:42;13.40;99.90
11577;DHT22;5844;51.496;6.788;2022-10-15T00:52:14;13.40;99.90
11577;DHT22;5844;51.496;6.788;2022-10-15T00:54:44;13.40;99.90
11577;DHT22;5844;51.496;6.788;2022-10-15T00:57:12;13.30;99.90
11577;DHT22;5844;51.496;6.788;2022-10-15T00:59:43;13.30;99.90
11577;DHT22;5844;51.496;6.788;2022-10-15T01:02:12;13.30;99.90
11577;DHT22;5844;51.496;6.788;2022-10-15T01:04:38;13.30;99.90
11577;DHT22;5844;51.496;6.788;2022-10-15T01:07:05;13.20;99.90
11577;DHT22;5844;51.496;6.788;2022-10-15T01:09:32;13.20;99.90
11577;DHT22;5844;51.496;6.788;2022-10-15T01:11:58;13.00;99.90
11577;DHT22;5844;51.496;6.788;2022-10-15T01:17:37;13.00;99.90
11577;DHT22;5844;51.496;6.788;2022-10-15T01:26:12;13.20;99.90
11577;DHT22;5844;51.496;6.788;2022-10-15T01:34:20;13.40;99.90
11577;DHT22;5844;51.496;6.788;2022-10-15T01:36:54;13.40;99.90
11577;DHT22;5844;51.496;6.788;2022-10-15T01:39:31;13.40;99.90
11577;DHT22;5844;51.496;6.788;2022-10-15T01:42:04;13.50;99.90
11577;DHT22;5844;51.496;6.788;2022-10-15T01:44:41;13.50;99.90
11577;DHT22;5844;51.496;6.788;2022-10-15T01:47:22;13.50;99.90
11577;DHT22;5844;51.496;6.788;2022-10-15T01:49:52;13.50;99.90
11577;DHT22;5844;51.496;6.788;2022-10-15T01:52:24;13.60;99.90
11577;DHT22;5844;51.496;6.788;2022-10-15T01:54:52;13.60;99.90
11577;DHT22;5844;51.496;6.788;2022-10-15T01:57:19;13.60;99.90
11577;DHT22;5844;51.496;6.788;2022-10-15T01:59:46;13.60;99.90
11577;DHT22;5844;51.496;6.788;2022-10-15T02:02:12;13.60;99.90
11577;DHT22;5844;51.496;6.788;2022-10-15T02:04:38;13.60;99.90
11577;DHT22;5844;51.496;6.788;2022-10-15T02:10:18;13.60;99.90
11577;DHT22;5844;51.496;6.788;2022-10-15T02:15:30;13.60;99.90
11577;DHT22;5844;51.496;6.788;2022-10-15T02:18:18;13.70;99.90
11577;DHT22;5844;51.496;6.788;2022-10-15T02:20:56;13.70;99.90
11577;DHT22;5844;51.496;6.788;2022-10-15T02:23:31;13.60;99.90
11577;DHT22;5844;51.496;6.788;2022-10-15T02:25:58;13.60;99.90
11577;DHT22;5844;51.496;6.788;2022-10-15T02:28:26;13.60;99.90
11577;DHT22;5844;51.496;6.788;2022-10-15T02:30:53;13.60;99.90
11577;DHT22;5844;51.496;6.788;2022-10-15T02:33:22;13.60;99.90
11577;DHT22;5844;51.496;6.788;2022-10-15T02:35:50;13.60;99.90
11577;DHT22;5844;51.496;6.788;2022-10-15T02:38:19;13.60;99.90
11577;DHT22;5844;51.496;6.788;2022-10-15T02:40:46;13.50;99.90
11577;DHT22;5844;51.496;6.788;2022-10-15T02:43:14;13.50;99.90
11577;DHT22;5844;51.496;6.788;2022-10-15T02:45:40;13.50;99.90
11577;DHT22;5844;51.496;6.788;2022-10-15T02:48:07;13.50;99.90
11577;DHT22;5844;51.496;6.788;2022-10-15T02:50:32;13.60;99.90
11577;DHT22;5844;51.496;6.788;2022-10-15T02:52:58;13.60;99.90
11577;DHT22;5844;51.496;6.788;2022-10-15T02:55:24;13.50;99.90
11577;DHT22;5844;51.496;6.788;2022-10-15T02:57:50;13.50;99.90
11577;DHT22;5844;51.496;6.788;2022-10-15T03:00:16;13.50;99.90
11577;DHT22;5844;51.496;6.788;2022-10-15T03:02:43;13.50;99.90
11577;DHT22;5844;51.496;6.788;2022-10-15T03:05:09;13.50;99.90
11577;DHT22;5844;51.496;6.788;2022-10-15T03:07:35;13.50;99.90
11577;DHT22;5844;51.496;6.788;2022-10-15T03:10:00;13.50;99.90
11577;DHT22;5844;51.496;6.788;2022-10-15T03:12:26;13.50;99.90
11577;DHT22;5844;51.496;6.788;2022-10-15T03:14:52;13.50;99.90
11577;DHT22;5844;51.496;6.788;2022-10-15T03:17:18;13.40;99.90
11577;DHT22;5844;51.496;6.788;2022-10-15T03:19:44;13.40;99.90
11577;DHT22;5844;51.496;6.788;2022-10-15T03:22:10;13.40;99.90
11577;DHT22;5844;51.496;6.788;2022-10-15T03:24:35;13.40;99.90
11577;DHT22;5844;51.496;6.788;2022-10-15T03:27:01;13.40;99.90
11577;DHT22;5844;51.496;6.788;2022-10-15T03:29:27;13.40;99.90
11577;DHT22;5844;51.496;6.788;2022-10-15T03:31:52;13.40;99.90
11577;DHT22;5844;51.496;6.788;2022-10-15T03:34:18;13.50;99.90
11577;DHT22;5844;51.496;6.788;2022-10-15T03:36:43;13.40;99.90
11577;DHT22;5844;51.496;6.788;2022-10-15T03:39:10;13.50;99.90
11577;DHT22;5844;51.496;6.788;2022-10-15T03:41:36;13.50;99.90
11577;DHT22;5844;51.496;6.788;2022-10-15T03:44:04;13.40;99.90
11577;DHT22;5844;51.496;6.788;2022-10-15T03:46:30;13.40;99.90
11577;DHT22;5844;51.496;6.788;2022-10-15T03:48:56;13.40;99.90
11577;DHT22;5844;51.496;6.788;2022-10-15T03:51:21;13.40;99.90
11577;DHT22;5844;51.496;6.788;2022-10-15T03:53:47;13.40;99.90
11577;DHT22;5844;51.496;6.788;2022-10-15T03:56:13;13.40;99.90
11577;DHT22;5844;51.496;6.788;2022-10-15T03:58:39;13.40;99.90
11577;DHT22;5844;51.496;6.788;2022-10-15T04:01:12;13.30;99.90
11577;DHT22;5844;51.496;6.788;2022-10-15T04:03:38;13.30;99.90
11577;DHT22;5844;51.496;6.788;2022-10-15T04:06:04;13.30;99.90
11577;DHT22;5844;51.496;6.788;2022-10-15T04:08:30;13.30;99.90
11577;DHT22;5844;51.496;6.788;2022-10-15T04:10:56;13.30;99.90
11577;DHT22;5844;51.496;6.788;2022-10-15T04:13:21;13.30;99.90
11577;DHT22;5844;51.496;6.788;2022-10-15T04:15:47;13.40;99.90
11577;DHT22;5844;51.496;6.788;2022-10-15T04:18:12;13.30;99.90
11577;DHT22;5844;51.496;6.788;2022-10-15T04:20:38;13.30;99.90
11577;DHT22;5844;51.496;6.788;2022-10-15T04:23:05;13.30;99.90
11577;DHT22;5844;51.496;6.788;2022-10-15T04:25:30;13.30;99.90
11577;DHT22;5844;51.496;6.788;2022-10-15T04:27:56;13.30;99.90
11577;DHT22;5844;51.496;6.788;2022-10-15T04:30:22;13.30;99.90
11577;DHT22;5844;51.496;6.788;2022-10-15T04:32:51;13.30;99.90
11577;DHT22;5844;51.496;6.788;2022-10-15T04:35:16;13.40;99.90
11577;DHT22;5844;51.496;6.788;2022-10-15T04:37:42;13.40;99.90
11577;DHT22;5844;51.496;6.788;2022-10-15T04:40:08;13.40;99.90
11577;DHT22;5844;51.496;6.788;2022-10-15T04:42:34;13.40;99.90
11577;DHT22;5844;51.496;6.788;2022-10-15T04:44:59;13.30;99.90
11577;DHT22;5844;51.496;6.788;2022-10-15T04:47:25;13.30;99.90
11577;DHT22;5844;51.496;6.788;2022-10-15T04:49:51;13.30;99.90
11577;DHT22;5844;51.496;6.788;2022-10-15T04:52:16;13.30;99.90
11577;DHT22;5844;51.496;6.788;2022-10-15T04:54:42;13.30;99.90
11577;DHT22;5844;51.496;6.788;2022-10-15T04:57:07;13.40;99.90
11577;DHT22;5844;51.496;6.788;2022-10-15T04:59:33;13.40;99.90
11577;DHT22;5844;51.496;6.788;2022-10-15T05:01:59;13.40;99.90
11577;DHT22;5844;51.496;6.788;2022-10-15T05:04:24;13.40;99.90
11577;DHT22;5844;51.496;6.788;2022-10-15T05:06:50;13.40;99.90
11577;DHT22;5844;51.496;6.788;2022-10-15T05:09:15;13.40;99.90
11577;DHT22;5844;51.496;6.788;2022-10-15T05:11:41;13.40;99.90
11577;DHT22;5844;51.496;6.788;2022-10-15T05:14:08;15.40;99.90
11577;DHT22;5844;51.496;6.788;2022-10-15T05:16:33;13.40;99.90
11577;DHT22;5844;51.496;6.788;2022-10-15T05:19:01;13.40;99.90
11577;DHT22;5844;51.496;6.788;2022-10-15T05:21:28;13.40;99.90
11577;DHT22;5844;51.496;6.788;2022-10-15T05:23:54;13.40;99.90
11577;DHT22;5844;51.496;6.788;2022-10-15T05:26:21;13.40;99.90
11577;DHT22;5844;51.496;6.788;2022-10-15T05:28:48;13.40;99.90
11577;DHT22;5844;51.496;6.788;2022-10-15T05:31:19;13.30;99.90
11577;DHT22;5844;51.496;6.788;2022-10-15T05:33:47;13.30;99.90
11577;DHT22;5844;51.496;6.788;2022-10-15T05:38:39;13.20;99.90
11577;DHT22;5844;51.496;6.788;2022-10-15T05:41:05;13.20;99.90
11577;DHT22;5844;51.496;6.788;2022-10-15T05:43:30;13.30;99.90
11577;DHT22;5844;51.496;6.788;2022-10-15T05:45:56;13.30;99.90
11577;DHT22;5844;51.496;6.788;2022-10-15T05:48:22;13.20;99.90
11577;DHT22;5844;51.496;6.788;2022-10-15T05:50:48;13.10;99.90
11577;DHT22;5844;51.496;6.788;2022-10-15T05:53:13;13.20;99.90
11577;DHT22;5844;51.496;6.788;2022-10-15T05:55:39;13.20;99.90
11577;DHT22;5844;51.496;6.788;2022-10-15T05:58:05;13.20;99.90
11577;DHT22;5844;51.496;6.788;2022-10-15T06:00:31;13.10;99.90
11577;DHT22;5844;51.496;6.788;2022-10-15T06:02:57;13.10;99.90
11577;DHT22;5844;51.496;6.788;2022-10-15T06:05:23;13.10;99.90
11577;DHT22;5844;51.496;6.788;2022-10-15T06:07:49;13.10;99.90
11577;DHT22;5844;51.496;6.788;2022-10-15T06:10:15;13.20;99.90
11577;DHT22;5844;51.496;6.788;2022-10-15T06:12:41;13.20;99.90
11577;DHT22;5844;51.496;6.788;2022-10-15T06:15:07;13.30;99.90
11577;DHT22;5844;51.496;6.788;2022-10-15T06:17:33;13.30;99.90
11577;DHT22;5844;51.496;6.788;2022-10-15T06:19:58;13.30;99.90
11577;DHT22;5844;51.496;6.788;2022-10-15T06:22:24;13.30;99.90
11577;DHT22;5844;51.496;6.788;2022-10-15T06:24:50;13.30;99.90
11577;DHT22;5844;51.496;6.788;2022-10-15T06:27:15;13.30;99.90
11577;DHT22;5844;51.496;6.788;2022-10-15T06:29:41;13.40;99.90
11577;DHT22;5844;51.496;6.788;2022-10-15T06:32:10;13.40;99.90
11577;DHT22;5844;51.496;6.788;2022-10-15T06:34:36;13.50;99.90
11577;DHT22;5844;51.496;6.788;2022-10-15T06:37:02;13.50;99.90
11577;DHT22;5844;51.496;6.788;2022-10-15T06:39:27;13.60;99.90
11577;DHT22;5844;51.496;6.788;2022-10-15T06:41:53;13.60;99.90
11577;DHT22;5844;51.496;6.788;2022-10-15T06:44:19;13.60;99.90
11577;DHT22;5844;51.496;6.788;2022-10-15T06:46:45;13.60;99.90
11577;DHT22;5844;51.496;6.788;2022-10-15T06:49:11;13.60;99.90
11577;DHT22;5844;51.496;6.788;2022-10-15T06:51:37;13.70;99.90
11577;DHT22;5844;51.496;6.788;2022-10-15T06:54:03;13.70;99.90
11577;DHT22;5844;51.496;6.788;2022-10-15T06:56:29;13.80;99.90
11577;DHT22;5844;51.496;6.788;2022-10-15T06:58:54;13.70;99.90
11577;DHT22;5844;51.496;6.788;2022-10-15T07:01:20;13.80;99.90
11577;DHT22;5844;51.496;6.788;2022-10-15T07:03:50;13.90;99.90
11577;DHT22;5844;51.496;6.788;2022-10-15T07:06:16;13.90;99.90
11577;DHT22;5844;51.496;6.788;2022-10-15T07:08:42;14.00;99.90
11577;DHT22;5844;51.496;6.788;2022-10-15T07:11:09;14.00;99.90
11577;DHT22;5844;51.496;6.788;2022-10-15T07:13:35;14.00;99.90
11577;DHT22;5844;51.496;6.788;2022-10-15T07:16:09;14.10;99.90
11577;DHT22;5844;51.496;6.788;2022-10-15T07:18:35;14.20;99.90
11577;DHT22;5844;51.496;6.788;2022-10-15T07:21:03;14.20;99.90
11577;DHT22;5844;51.496;6.788;2022-10-15T07:23:29;14.30;99.90
11577;DHT22;5844;51.496;6.788;2022-10-15T07:25:59;14.40;99.90
11577;DHT22;5844;51.496;6.788;2022-10-15T07:28:25;14.50;99.90
11577;DHT22;5844;51.496;6.788;2022-10-15T07:30:51;14.60;99.90
11577;DHT22;5844;51.496;6.788;2022-10-15T07:33:17;14.60;99.90
11577;DHT22;5844;51.496;6.788;2022-10-15T07:35:42;14.60;99.90
11577;DHT22;5844;51.496;6.788;2022-10-15T07:38:08;14.50;99.90
11577;DHT22;5844;51.496;6.788;2022-10-15T07:40:34;14.60;99.90
11577;DHT22;5844;51.496;6.788;2022-10-15T07:42:59;14.60;99.90
11577;DHT22;5844;51.496;6.788;2022-10-15T07:45:27;14.60;99.90
11577;DHT22;5844;51.496;6.788;2022-10-15T07:47:53;14.70;99.90
11577;DHT22;5844;51.496;6.788;2022-10-15T07:50:20;14.70;99.90
11577;DHT22;5844;51.496;6.788;2022-10-15T07:52:46;14.80;99.90
11577;DHT22;5844;51.496;6.788;2022-10-15T07:55:12;14.80;99.90
11577;DHT22;5844;51.496;6.788;2022-10-15T07:57:38;14.90;99.90
11577;DHT22;5844;51.496;6.788;2022-10-15T08:00:04;15.10;99.90
11577;DHT22;5844;51.496;6.788;2022-10-15T08:02:30;15.20;99.90
11577;DHT22;5844;51.496;6.788;2022-10-15T08:04:56;15.40;99.90
11577;DHT22;5844;51.496;6.788;2022-10-15T08:07:21;15.60;99.90
11577;DHT22;5844;51.496;6.788;2022-10-15T08:09:47;15.70;99.90
11577;DHT22;5844;51.496;6.788;2022-10-15T08:12:13;15.70;99.90
11577;DHT22;5844;51.496;6.788;2022-10-15T08:14:38;15.60;99.90
11577;DHT22;5844;51.496;6.788;2022-10-15T08:17:05;15.60;99.90
11577;DHT22;5844;51.496;6.788;2022-10-15T08:19:31;15.70;99.90
11577;DHT22;5844;51.496;6.788;2022-10-15T08:21:56;15.60;99.90
11577;DHT22;5844;51.496;6.788;2022-10-15T08:24:22;15.60;99.90
11577;DHT22;5844;51.496;6.788;2022-10-15T08:26:48;15.70;99.90
11577;DHT22;5844;51.496;6.788;2022-10-15T08:29:14;15.90;99.90
11577;DHT22;5844;51.496;6.788;2022-10-15T08:31:40;16.30;99.90
11577;DHT22;5844;51.496;6.788;2022-10-15T08:34:06;16.60;99.90
11577;DHT22;5844;51.496;6.788;2022-10-15T08:36:32;16.70;99.90
11577;DHT22;5844;51.496;6.788;2022-10-15T08:38:57;16.80;99.90
11577;DHT22;5844;51.496;6.788;2022-10-15T08:41:28;16.90;99.90
11577;DHT22;5844;51.496;6.788;2022-10-15T08:43:55;17.30;99.90
11577;DHT22;5844;51.496;6.788;2022-10-15T08:46:24;17.60;99.90
11577;DHT22;5844;51.496;6.788;2022-10-15T08:48:55;17.50;99.90
11577;DHT22;5844;51.496;6.788;2022-10-15T08:51:25;17.20;99.90
11577;DHT22;5844;51.496;6.788;2022-10-15T08:53:58;17.00;99.90
11577;DHT22;5844;51.496;6.788;2022-10-15T08:56:33;16.80;99.90
11577;DHT22;5844;51.496;6.788;2022-10-15T08:59:07;17.00;99.90
11577;DHT22;5844;51.496;6.788;2022-10-15T09:01:52;17.20;99.90
11577;DHT22;5844;51.496;6.788;2022-10-15T09:04:59;17.30;99.90
11577;DHT22;5844;51.496;6.788;2022-10-15T09:07:35;17.40;99.90
11577;DHT22;5844;51.496;6.788;2022-10-15T09:10:35;17.80;99.90
11577;DHT22;5844;51.496;6.788;2022-10-15T09:15:43;19.10;99.90
11577;DHT22;5844;51.496;6.788;2022-10-15T09:18:17;19.70;99.90
11577;DHT22;5844;51.496;6.788;2022-10-15T09:20:45;19.90;99.90
11577;DHT22;5844;51.496;6.788;2022-10-15T09:23:19;19.90;99.90
11577;DHT22;5844;51.496;6.788;2022-10-15T09:26:33;19.50;99.90
11577;DHT22;5844;51.496;6.788;2022-10-15T09:31:46;19.10;99.90
11577;DHT22;5844;51.496;6.788;2022-10-15T09:34:47;18.90;99.90
11577;DHT22;5844;51.496;6.788;2022-10-15T09:37:26;19.20;99.90
11577;DHT22;5844;51.496;6.788;2022-10-15T09:42:29;20.70;99.90
11577;DHT22;5844;51.496;6.788;2022-10-15T09:45:10;20.80;23.30
11577;DHT22;5844;51.496;6.788;2022-10-15T09:47:39;20.60;1.00
11577;DHT22;5844;51.496;6.788;2022-10-15T09:50:07;20.10;1.00
11577;DHT22;5844;51.496;6.788;2022-10-15T09:58:02;19.40;1.00
11577;DHT22;5844;51.496;6.788;2022-10-15T10:03:16;18.70;1.00
11577;DHT22;5844;51.496;6.788;2022-10-15T10:05:42;18.50;1.00
11577;DHT22;5844;51.496;6.788;2022-10-15T10:08:21;18.40;1.00
11577;DHT22;5844;51.496;6.788;2022-10-15T10:10:56;18.40;1.00
11577;DHT22;5844;51.496;6.788;2022-10-15T10:13:36;18.30;1.00
11577;DHT22;5844;51.496;6.788;2022-10-15T10:16:11;18.10;1.00
11577;DHT22;5844;51.496;6.788;2022-10-15T10:18:37;18.10;1.00
11577;DHT22;5844;51.496;6.788;2022-10-15T10:21:21;18.00;1.00
11577;DHT22;5844;51.496;6.788;2022-10-15T10:23:47;18.00;1.00
11577;DHT22;5844;51.496;6.788;2022-10-15T10:26:12;17.90;1.00
11577;DHT22;5844;51.496;6.788;2022-10-15T10:28:46;17.90;1.00
11577;DHT22;5844;51.496;6.788;2022-10-15T10:31:14;18.00;1.00
11577;DHT22;5844;51.496;6.788;2022-10-15T10:33:49;18.20;1.00
11577;DHT22;5844;51.496;6.788;2022-10-15T10:44:42;17.80;3.70
11577;DHT22;5844;51.496;6.788;2022-10-15T10:47:13;17.40;99.90
11577;DHT22;5844;51.496;6.788;2022-10-15T10:49:57;17.20;99.90
11577;DHT22;5844;51.496;6.788;2022-10-15T10:52:33;17.10;99.90
11577;DHT22;5844;51.496;6.788;2022-10-15T10:57:47;16.70;99.90
11577;DHT22;5844;51.496;6.788;2022-10-15T11:00:37;16.50;99.90
11577;DHT22;5844;51.496;6.788;2022-10-15T11:03:05;16.50;99.90
11577;DHT22;5844;51.496;6.788;2022-10-15T11:05:37;16.40;99.90
11577;DHT22;5844;51.496;6.788;2022-10-15T11:08:52;16.40;99.90
11577;DHT22;5844;51.496;6.788;2022-10-15T11:13:54;16.40;99.90
11577;DHT22;5844;51.496;6.788;2022-10-15T11:16:27;16.40;99.90
11577;DHT22;5844;51.496;6.788;2022-10-15T11:24:28;16.70;99.90
11577;DHT22;5844;51.496;6.788;2022-10-15T11:30:13;16.70;99.90
11577;DHT22;5844;51.496;6.788;2022-10-15T11:49:22;17.00;99.90
11577;DHT22;5844;51.496;6.788;2022-10-15T11:52:21;17.10;99.90
11577;DHT22;5844;51.496;6.788;2022-10-15T11:57:37;17.80;99.90
11577;DHT22;5844;51.496;6.788;2022-10-15T12:02:46;17.80;99.90
11577;DHT22;5844;51.496;6.788;2022-10-15T12:05:34;17.70;99.90
11577;DHT22;5844;51.496;6.788;2022-10-15T12:08:02;17.50;99.90
11577;DHT22;5844;51.496;6.788;2022-10-15T12:11:02;17.40;99.90
11577;DHT22;5844;51.496;6.788;2022-10-15T12:13:45;17.50;99.90
11577;DHT22;5844;51.496;6.788;2022-10-15T12:16:30;17.50;99.90
11577;DHT22;5844;51.496;6.788;2022-10-15T12:19:28;17.50;99.90
11577;DHT22;5844;51.496;6.788;2022-10-15T12:27:35;18.20;99.90
11577;DHT22;5844;51.496;6.788;2022-10-15T12:35:06;17.90;99.90
11577;DHT22;5844;51.496;6.788;2022-10-15T12:37:44;18.20;99.90
11577;DHT22;5844;51.496;6.788;2022-10-15T12:42:49;18.60;99.90
11577;DHT22;5844;51.496;6.788;2022-10-15T12:45:23;18.80;99.90
11577;DHT22;5844;51.496;6.788;2022-10-15T12:50:28;18.70;99.90
11577;DHT22;5844;51.496;6.788;2022-10-15T12:55:36;18.80;99.90
11577;DHT22;5844;51.496;6.788;2022-10-15T13:00:55;18.80;99.90
11577;DHT22;5844;51.496;6.788;2022-10-15T13:03:22;18.70;99.90
11577;DHT22;5844;51.496;6.788;2022-10-15T13:05:50;18.60;99.90
11577;DHT22;5844;51.496;6.788;2022-10-15T13:08:21;18.40;99.90
11577;DHT22;5844;51.496;6.788;2022-10-15T13:10:58;18.20;99.90
11577;DHT22;5844;51.496;6.788;2022-10-15T13:13:30;18.10;99.90
11577;DHT22;5844;51.496;6.788;2022-10-15T13:16:01;18.20;99.90
11577;DHT22;5844;51.496;6.788;2022-10-15T13:18:31;18.20;99.90
11577;DHT22;5844;51.496;6.788;2022-10-15T13:20:58;18.40;99.90
11577;DHT22;5844;51.496;6.788;2022-10-15T13:23:29;18.60;99.90
11577;DHT22;5844;51.496;6.788;2022-10-15T13:26:31;18.80;99.90
11577;DHT22;5844;51.496;6.788;2022-10-15T13:28:57;19.10;99.90
11577;DHT22;5844;51.496;6.788;2022-10-15T13:31:29;19.30;99.90
11577;DHT22;5844;51.496;6.788;2022-10-15T13:33:59;19.80;99.90
11577;DHT22;5844;51.496;6.788;2022-10-15T13:36:30;19.80;99.90
11577;DHT22;5844;51.496;6.788;2022-10-15T13:39:02;20.10;99.90
11577;DHT22;5844;51.496;6.788;2022-10-15T13:41:32;20.50;99.90
11577;DHT22;5844;51.496;6.788;2022-10-15T13:43:58;20.60;99.90
11577;DHT22;5844;51.496;6.788;2022-10-15T13:46:28;20.60;99.90
11577;DHT22;5844;51.496;6.788;2022-10-15T13:48:59;20.40;99.90
11577;DHT22;5844;51.496;6.788;2022-10-15T13:51:32;20.20;99.90
11577;DHT22;5844;51.496;6.788;2022-10-15T13:54:00;20.00;99.90
11577;DHT22;5844;51.496;6.788;2022-10-15T13:56:27;19.90;99.90
11577;DHT22;5844;51.496;6.788;2022-10-15T13:58:54;19.70;99.90
11577;DHT22;5844;51.496;6.788;2022-10-15T14:01:22;19.50;99.90
11577;DHT22;5844;51.496;6.788;2022-10-15T14:03:50;19.40;99.90
11577;DHT22;5844;51.496;6.788;2022-10-15T14:08:51;19.00;99.90
11577;DHT22;5844;51.496;6.788;2022-10-15T14:11:17;18.50;99.90
11577;DHT22;5844;51.496;6.788;2022-10-15T14:13:44;18.60;99.90
11577;DHT22;5844;51.496;6.788;2022-10-15T14:18:50;18.10;99.90
11577;DHT22;5844;51.496;6.788;2022-10-15T14:21:19;18.10;99.90
11577;DHT22;5844;51.496;6.788;2022-10-15T14:23:47;18.20;99.90
11577;DHT22;5844;51.496;6.788;2022-10-15T14:26:13;18.20;99.90
11577;DHT22;5844;51.496;6.788;2022-10-15T14:28:42;18.20;99.90
11577;DHT22;5844;51.496;6.788;2022-10-15T14:31:37;18.10;99.90
11577;DHT22;5844;51.496;6.788;2022-10-15T14:34:04;18.00;99.90
11577;DHT22;5844;51.496;6.788;2022-10-15T14:36:39;18.00;99.90
11577;DHT22;5844;51.496;6.788;2022-10-15T14:39:32;18.00;99.90
11577;DHT22;5844;51.496;6.788;2022-10-15T14:42:21;18.00;99.90
11577;DHT22;5844;51.496;6.788;2022-10-15T14:44:50;17.90;99.90
11577;DHT22;5844;51.496;6.788;2022-10-15T14:47:29;17.80;99.90
11577;DHT22;5844;51.496;6.788;2022-10-15T14:49:58;17.80;99.90
11577;DHT22;5844;51.496;6.788;2022-10-15T14:52:25;17.80;99.90
11577;DHT22;5844;51.496;6.788;2022-10-15T14:57:51;17.70;99.90
11577;DHT22;5844;51.496;6.788;2022-10-15T15:02:42;18.10;99.90
11577;DHT22;5844;51.496;6.788;2022-10-15T15:07:37;19.50;99.90
11577;DHT22;5844;51.496;6.788;2022-10-15T15:10:05;19.80;99.90
11577;DHT22;5844;51.496;6.788;2022-10-15T15:12:31;19.80;99.90
11577;DHT22;5844;51.496;6.788;2022-10-15T15:14:58;19.50;99.90
11577;DHT22;5844;51.496;6.788;2022-10-15T15:17:26;19.20;99.90
11577;DHT22;5844;51.496;6.788;2022-10-15T15:19:54;19.00;99.90
11577;DHT22;5844;51.496;6.788;2022-10-15T15:24:50;18.60;99.90
11577;DHT22;5844;51.496;6.788;2022-10-15T15:27:28;18.80;99.90
11577;DHT22;5844;51.496;6.788;2022-10-15T15:29:54;19.20;99.90
11577;DHT22;5844;51.496;6.788;2022-10-15T15:32:21;19.30;99.90
11577;DHT22;5844;51.496;6.788;2022-10-15T15:34:48;19.40;99.90
11577;DHT22;5844;51.496;6.788;2022-10-15T15:37:16;19.20;99.90
11577;DHT22;5844;51.496;6.788;2022-10-15T15:39:42;19.00;99.90
11577;DHT22;5844;51.496;6.788;2022-10-15T15:42:13;18.80;99.90
11577;DHT22;5844;51.496;6.788;2022-10-15T15:44:39;18.60;99.90
11577;DHT22;5844;51.496;6.788;2022-10-15T15:47:06;18.50;99.90
11577;DHT22;5844;51.496;6.788;2022-10-15T15:49:31;18.30;99.90
11577;DHT22;5844;51.496;6.788;2022-10-15T15:51:57;18.30;99.90
11577;DHT22;5844;51.496;6.788;2022-10-15T15:54:23;18.30;99.90
11577;DHT22;5844;51.496;6.788;2022-10-15T15:56:48;18.20;99.90
11577;DHT22;5844;51.496;6.788;2022-10-15T15:59:14;18.20;99.90
11577;DHT22;5844;51.496;6.788;2022-10-15T16:01:41;18.10;99.90
11577;DHT22;5844;51.496;6.788;2022-10-15T16:04:07;18.10;99.90
11577;DHT22;5844;51.496;6.788;2022-10-15T16:06:33;18.10;99.90
11577;DHT22;5844;51.496;6.788;2022-10-15T16:08:58;18.00;99.90
11577;DHT22;5844;51.496;6.788;2022-10-15T16:11:24;18.00;99.90
11577;DHT22;5844;51.496;6.788;2022-10-15T16:13:50;18.00;99.90
11577;DHT22;5844;51.496;6.788;2022-10-15T16:16:16;17.90;99.90
11577;DHT22;5844;51.496;6.788;2022-10-15T16:18:42;17.80;99.90
11577;DHT22;5844;51.496;6.788;2022-10-15T16:21:07;17.70;99.90
11577;DHT22;5844;51.496;6.788;2022-10-15T16:23:33;17.70;1.00
11577;DHT22;5844;51.496;6.788;2022-10-15T16:25:58;17.70;1.00
11577;DHT22;5844;51.496;6.788;2022-10-15T16:28:24;17.80;1.00
11577;DHT22;5844;51.496;6.788;2022-10-15T16:30:50;17.80;1.00
11577;DHT22;5844;51.496;6.788;2022-10-15T16:33:15;17.80;1.00
11577;DHT22;5844;51.496;6.788;2022-10-15T16:35:41;17.70;1.00
11577;DHT22;5844;51.496;6.788;2022-10-15T16:38:07;17.70;1.00
11577;DHT22;5844;51.496;6.788;2022-10-15T16:40:33;17.70;99.90
11577;DHT22;5844;51.496;6.788;2022-10-15T16:42:59;17.70;99.90
11577;DHT22;5844;51.496;6.788;2022-10-15T16:45:25;17.70;99.90
11577;DHT22;5844;51.496;6.788;2022-10-15T16:47:51;17.60;99.90
11577;DHT22;5844;51.496;6.788;2022-10-15T16:50:16;17.60;99.90
11577;DHT22;5844;51.496;6.788;2022-10-15T16:52:42;17.60;99.90
11577;DHT22;5844;51.496;6.788;2022-10-15T16:55:08;17.50;99.90
11577;DHT22;5844;51.496;6.788;2022-10-15T16:57:34;17.50;99.90
11577;DHT22;5844;51.496;6.788;2022-10-15T16:59:59;17.50;76.50
11577;DHT22;5844;51.496;6.788;2022-10-15T17:02:25;17.50;99.90
11577;DHT22;5844;51.496;6.788;2022-10-15T17:04:50;17.50;99.90
11577;DHT22;5844;51.496;6.788;2022-10-15T17:07:17;17.50;99.90
11577;DHT22;5844;51.496;6.788;2022-10-15T17:09:43;17.40;99.90
11577;DHT22;5844;51.496;6.788;2022-10-15T17:12:10;17.40;99.90
11577;DHT22;5844;51.496;6.788;2022-10-15T17:14:36;17.50;99.90
11577;DHT22;5844;51.496;6.788;2022-10-15T17:17:02;17.40;99.90
11577;DHT22;5844;51.496;6.788;2022-10-15T17:19:28;17.30;99.90
11577;DHT22;5844;51.496;6.788;2022-10-15T17:21:54;17.30;99.90
11577;DHT22;5844;51.496;6.788;2022-10-15T17:24:20;17.30;99.90
11577;DHT22;5844;51.496;6.788;2022-10-15T17:26:46;17.20;99.90
11577;DHT22;5844;51.496;6.788;2022-10-15T17:29:17;17.20;92.30
11577;DHT22;5844;51.496;6.788;2022-10-15T17:31:45;17.20;99.90
11577;DHT22;5844;51.496;6.788;2022-10-15T17:34:11;17.10;99.90
11577;DHT22;5844;51.496;6.788;2022-10-15T17:36:40;17.00;99.90
11577;DHT22;5844;51.496;6.788;2022-10-15T17:39:10;17.00;99.90
11577;DHT22;5844;51.496;6.788;2022-10-15T17:41:37;16.90;99.90
11577;DHT22;5844;51.496;6.788;2022-10-15T17:44:03;16.80;99.90
11577;DHT22;5844;51.496;6.788;2022-10-15T17:46:29;16.60;99.90
11577;DHT22;5844;51.496;6.788;2022-10-15T17:48:56;16.50;99.90
11577;DHT22;5844;51.496;6.788;2022-10-15T17:51:25;16.40;99.90
11577;DHT22;5844;51.496;6.788;2022-10-15T17:53:52;16.40;99.90
11577;DHT22;5844;51.496;6.788;2022-10-15T17:56:19;16.20;1.00
11577;DHT22;5844;51.496;6.788;2022-10-15T17:58:46;16.10;1.00
11577;DHT22;5844;51.496;6.788;2022-10-15T18:01:14;16.00;1.00
11577;DHT22;5844;51.496;6.788;2022-10-15T18:03:40;15.80;1.00